Thibodaux, Louisiana
Current Conditions -  °F | °C
As of 11:15 PM on Wednesday 26 Nov 2014 (Local Time) from KHUM Reporting Station
Clear Clear  
Wind Chill: 52°   Ceiling: Unl
Heat Index: 52°   Visibility: 10mi
Dew Point: 50°   Wind: 3mph
Humidity: 94%   Direction: 270°W
Pressure: 30.29"   Gusts: NA
Location:  29.8°N, 90.82°W
Report Text: KHUM 270515Z AUTO 27003KT 10SM CLR 11/10 A3029 RMK AO2 T01100100
Loading
Personal Weather Stations






























Interactive Weather Map New forecast layout! Learn more

10-Day Weather Forecast

Advertisements
Track Severe Weather on mobile